Time;durP1;ratioP1;P1;durP2;ratioP2;P2;SDS_P1;SDS_P2;PMS_P1;PMS_P2;Temp;Humidity;BMP_temperature;BMP_pressure;BME280_temperature;BME280_humidity;BME280_pressure;Samples;Min_cycle;Max_cycle;Signal;HPM_P1;HPM_P2
2021/10/30 00:02:22;;;;;;;39.63;15.70;;;;;;;6.38;100.00;101012.86;1741454;80;21574;-59
2021/10/30 00:04:48;;;;;;;40.30;14.83;;;;;;;6.30;100.00;101009.42;1743915;80;21526;-60
2021/10/30 00:07:15;;;;;;;29.82;14.75;;;;;;;6.29;100.00;101012.03;1736916;80;21622;-59
2021/10/30 00:09:44;;;;;;;45.12;14.53;;;;;;;6.33;100.00;101008.53;1729490;80;21484;-59
2021/10/30 00:12:11;;;;;;;41.08;15.28;;;;;;;6.34;100.00;101010.28;1730515;80;20987;-58
2021/10/30 00:14:39;;;;;;;44.60;15.25;;;;;;;6.28;100.00;101009.87;1727489;80;21404;-58
2021/10/30 00:17:06;;;;;;;38.53;14.43;;;;;;;6.18;100.00;101009.48;1696173;83;21392;-59
2021/10/30 00:19:33;;;;;;;29.40;14.77;;;;;;;6.17;100.00;101007.72;1747062;80;21555;-59
2021/10/30 00:22:00;;;;;;;22.73;14.13;;;;;;;6.24;100.00;101002.47;1733634;80;21459;-59
2021/10/30 00:24:27;;;;;;;29.07;13.93;;;;;;;6.29;100.00;100998.97;1734506;80;20982;-60
2021/10/30 00:26:54;;;;;;;29.25;14.53;;;;;;;6.32;100.00;101001.58;1718233;80;21768;-59
2021/10/30 00:29:21;;;;;;;22.07;13.85;;;;;;;6.31;100.00;100999.83;1695380;83;20951;-59
2021/10/30 00:31:49;;;;;;;19.55;14.10;;;;;;;6.29;100.00;100991.13;1739723;80;21492;-59
2021/10/30 00:34:16;;;;;;;18.37;13.00;;;;;;;6.34;100.00;100993.30;1697247;83;21503;-58
2021/10/30 00:36:42;;;;;;;25.40;14.50;;;;;;;6.35;100.00;101000.28;1739536;80;21598;-59
2021/10/30 00:39:09;;;;;;;27.00;13.68;;;;;;;6.33;100.00;100992.86;1742007;80;21783;-59
2021/10/30 00:41:36;;;;;;;22.77;13.98;;;;;;;6.27;100.00;100998.11;1725889;80;21574;-59
2021/10/30 00:44:09;;;;;;;21.15;13.83;;;;;;;6.26;100.00;100996.39;1738538;80;21705;-59
2021/10/30 00:46:42;;;;;;;16.60;13.43;;;;;;;6.33;100.00;100996.36;1733804;80;21689;-59
2021/10/30 00:49:10;;;;;;;21.07;13.78;;;;;;;6.39;100.00;100994.16;1697584;83;21522;-58
2021/10/30 00:51:38;;;;;;;26.90;13.90;;;;;;;6.41;100.00;100996.33;1737088;80;22020;-58
2021/10/30 00:54:05;;;;;;;17.05;13.30;;;;;;;6.34;100.00;100991.55;1731689;80;21664;-59
2021/10/30 00:56:32;;;;;;;16.27;13.40;;;;;;;6.30;100.00;100992.89;1727151;80;28982;-59
2021/10/30 00:59:01;;;;;;;20.30;14.00;;;;;;;6.34;100.00;100990.69;1728657;80;20998;-59
2021/10/30 01:01:28;;;;;;;27.40;13.28;;;;;;;6.40;100.00;100990.66;1722544;80;21560;-59
2021/10/30 01:03:54;;;;;;;19.95;13.45;;;;;;;6.41;100.00;100989.80;1742438;80;22167;-59
2021/10/30 01:06:21;;;;;;;19.17;13.43;;;;;;;6.37;100.00;100986.77;1741757;80;21448;-59
2021/10/30 01:08:47;;;;;;;20.57;13.25;;;;;;;6.34;100.00;100989.38;1741732;80;21002;-59
2021/10/30 01:11:19;;;;;;;18.00;13.13;;;;;;;6.41;100.00;100987.18;1739326;80;21594;-59
2021/10/30 01:13:43;;;;;;;17.00;13.65;;;;;;;6.48;100.00;100985.39;1733996;80;21400;-59
2021/10/30 01:16:10;;;;;;;39.07;14.03;;;;;;;6.45;100.00;100986.73;1688885;83;21781;-59
2021/10/30 01:18:38;;;;;;;21.35;13.48;;;;;;;6.36;100.00;100987.62;1739016;80;22098;-59
2021/10/30 01:21:05;;;;;;;17.10;12.03;;;;;;;6.28;100.00;100992.03;1738666;80;21617;-60
2021/10/30 01:23:32;;;;;;;21.77;12.25;;;;;;;6.34;100.00;100990.24;1741191;80;21485;-59
2021/10/30 01:26:00;;;;;;;27.00;13.28;;;;;;;6.35;100.00;100987.22;1731204;80;21014;-59
2021/10/30 01:28:27;;;;;;;31.25;13.93;;;;;;;6.35;100.00;100993.30;1734893;80;21784;-59
2021/10/30 01:30:54;;;;;;;31.60;13.50;;;;;;;6.27;100.00;100992.89;1741126;80;23276;-59
2021/10/30 01:33:21;;;;;;;18.30;13.17;;;;;;;6.24;100.00;100992.47;1736135;80;21507;-59
2021/10/30 01:35:48;;;;;;;33.88;13.55;;;;;;;6.30;100.00;100985.91;1721148;80;21533;-61
2021/10/30 01:38:15;;;;;;;36.67;12.93;;;;;;;6.35;100.00;100987.22;1738134;80;21456;-58
2021/10/30 01:40:46;;;;;;;30.37;13.68;;;;;;;6.23;100.00;100994.64;1736079;80;21808;-59
2021/10/30 01:43:14;;;;;;;28.38;12.93;;;;;;;6.17;100.00;100995.97;1732849;80;21499;-59
2021/10/30 01:45:43;;;;;;;27.48;12.60;;;;;;;6.16;100.00;100996.42;1720832;80;21527;-59
2021/10/30 01:48:09;;;;;;;;;;;;;;;6.23;100.00;100990.72;1743915;80;21105;-59
2021/10/30 01:50:38;;;;;;;25.60;13.13;;;;;;;6.23;100.00;100986.39;1726027;80;20432;-59
2021/10/30 01:53:05;;;;;;;27.20;11.88;;;;;;;6.19;100.00;100997.69;1739203;80;21543;-59
2021/10/30 01:55:35;;;;;;;28.52;12.88;;;;;;;6.19;100.00;100994.22;1745160;80;20950;-59
2021/10/30 01:58:02;;;;;;;21.62;12.60;;;;;;;6.28;100.00;100999.42;1689559;81;21542;-59
2021/10/30 02:00:29;;;;;;;20.23;12.90;;;;;;;6.37;100.00;100995.47;1749685;79;21499;-59
2021/10/30 02:02:56;;;;;;;34.15;12.90;;;;;;;6.40;100.00;100990.66;1736895;80;21515;-59
2021/10/30 02:05:23;;;;;;;31.48;12.82;;;;;;;6.37;100.00;100989.38;1742082;80;21804;-59
2021/10/30 02:07:50;;;;;;;44.55;13.65;;;;;;;6.36;100.00;101000.25;1731404;80;21499;-59
2021/10/30 02:10:17;;;;;;;45.15;14.40;;;;;;;6.43;100.00;100993.27;1749519;80;21484;-60
2021/10/30 02:12:45;;;;;;;34.60;13.32;;;;;;;6.46;100.00;100999.80;1735447;80;21508;-59
2021/10/30 02:15:12;;;;;;;26.70;13.88;;;;;;;6.36;100.00;100996.33;1737447;80;21721;-59
2021/10/30 02:17:40;;;;;;;23.15;12.13;;;;;;;6.31;100.00;100990.69;1743173;80;21867;-61
2021/10/30 02:20:09;;;;;;;16.87;11.83;;;;;;;6.36;100.00;100990.24;1737412;80;21468;-59
2021/10/30 02:22:37;;;;;;;28.42;13.20;;;;;;;6.47;100.00;100991.06;1748617;80;21491;-59
2021/10/30 02:25:08;;;;;;;48.28;13.60;;;;;;;6.53;100.00;100990.17;1736998;80;21532;-59
2021/10/30 02:27:38;;;;;;;19.52;13.13;;;;;;;6.47;100.00;100991.06;1734740;80;20986;-59
2021/10/30 02:30:08;;;;;;;20.48;12.58;;;;;;;6.39;100.00;100991.10;1730492;80;21749;-60
2021/10/30 02:32:35;;;;;;;19.10;12.93;;;;;;;6.48;100.00;101000.66;1738059;80;21077;-60
2021/10/30 02:35:02;;;;;;;25.00;12.50;;;;;;;6.55;100.00;100994.95;1729412;80;21551;-59
2021/10/30 02:37:31;;;;;;;21.07;13.32;;;;;;;6.55;100.00;100996.25;1743184;80;21424;-59
2021/10/30 02:39:58;;;;;;;24.72;13.15;;;;;;;6.53;100.00;100999.31;1745923;80;21456;-59
2021/10/30 02:42:25;;;;;;;21.48;12.88;;;;;;;6.51;100.00;101004.55;1739755;80;21863;-60
2021/10/30 02:44:51;;;;;;;26.95;12.68;;;;;;;6.59;100.00;101003.20;1732634;80;21445;-59
2021/10/30 02:47:18;;;;;;;35.85;12.85;;;;;;;6.63;100.00;101005.81;1733723;80;21520;-59
2021/10/30 02:49:44;;;;;;;20.50;12.85;;;;;;;6.64;100.00;101013.20;1731953;79;21511;-59
2021/10/30 02:52:11;;;;;;;25.27;12.33;;;;;;;6.58;100.00;101004.95;1685940;82;21445;-59
2021/10/30 02:54:38;;;;;;;18.00;12.50;;;;;;;6.58;100.00;101014.10;1732166;80;21875;-60
2021/10/30 02:57:05;;;;;;;21.55;11.48;;;;;;;6.63;100.00;101012.34;1750437;80;21400;-60
2021/10/30 02:59:32;;;;;;;;;;;;;;;6.70;100.00;101013.61;1741835;80;21428;-59
2021/10/30 03:01:59;;;;;;;20.10;13.13;;;;;;;6.72;100.00;101010.10;1740698;80;20468;-60
2021/10/30 03:04:26;;;;;;;17.55;12.15;;;;;;;6.65;100.00;101013.65;1684399;84;21539;-60
2021/10/30 03:06:53;;;;;;;17.05;11.40;;;;;;;6.65;100.00;101017.56;1730317;80;21741;-59
2021/10/30 03:09:19;;;;;;;24.15;12.37;;;;;;;6.74;100.00;101019.25;1750268;79;21535;-58
2021/10/30 03:11:47;;;;;;;21.03;12.20;;;;;;;6.75;100.00;101019.69;1734233;80;21582;-59
2021/10/30 03:14:13;;;;;;;17.50;12.93;;;;;;;6.70;100.00;101017.53;1734587;80;21421;-60
2021/10/30 03:16:41;;;;;;;35.47;12.60;;;;;;;6.63;100.00;101020.19;1726186;81;21491;-59
2021/10/30 03:19:08;;;;;;;22.17;12.25;;;;;;;6.61;100.00;101024.97;1733489;80;21760;-59
2021/10/30 03:21:34;;;;;;;18.12;11.30;;;;;;;6.59;100.00;101022.80;1735489;80;21523;-59
2021/10/30 03:24:01;;;;;;;29.40;12.90;;;;;;;6.62;100.00;101018.43;1748404;79;21618;-59
2021/10/30 03:26:28;;;;;;;27.25;13.08;;;;;;;6.68;100.00;101022.76;1723117;82;21421;-59
2021/10/30 03:28:55;;;;;;;18.42;12.55;;;;;;;6.64;100.00;101019.73;1735381;80;21531;-59
2021/10/30 03:31:21;;;;;;;14.20;11.33;;;;;;;6.59;100.00;101021.08;1691235;82;21851;-59
2021/10/30 03:33:48;;;;;;;13.40;11.55;;;;;;;6.66;100.00;101015.37;1736383;80;21559;-59
2021/10/30 03:36:16;;;;;;;19.80;11.80;;;;;;;6.73;100.00;101018.83;1728296;79;21436;-60
2021/10/30 03:38:42;;;;;;;30.37;14.07;;;;;;;6.72;100.00;101020.55;1734449;80;21462;-60
2021/10/30 03:41:10;;;;;;;21.12;13.03;;;;;;;6.69;100.00;101019.28;1732529;80;21412;-61
2021/10/30 03:43:36;;;;;;;18.50;12.80;;;;;;;6.66;100.00;101023.20;1688184;82;21808;-61
2021/10/30 03:46:03;;;;;;;14.45;12.30;;;;;;;6.71;100.00;101021.90;1739138;80;21507;-58
2021/10/30 03:48:31;;;;;;;;;;;;;;;6.77;100.00;101025.33;1749192;80;21479;-61
2021/10/30 03:50:57;;;;;;;21.45;12.13;;;;;;;6.79;100.00;101029.25;1735438;80;20460;-61
2021/10/30 03:53:24;;;;;;;29.97;13.37;;;;;;;6.75;100.00;101026.23;1728367;80;21590;-60
2021/10/30 03:55:51;;;;;;;18.05;12.93;;;;;;;6.72;100.00;101019.25;1740694;80;21755;-61
2021/10/30 03:58:18;;;;;;;24.92;11.48;;;;;;;6.74;100.00;101025.78;1739387;80;21570;-60
2021/10/30 04:00:44;;;;;;;19.52;10.95;;;;;;;6.81;100.00;101020.95;1734789;80;21649;-59
2021/10/30 04:03:12;;;;;;;34.90;12.05;;;;;;;6.84;100.00;101019.65;1742398;80;21539;-60
2021/10/30 04:05:39;;;;;;;;;;;;;;;6.85;100.00;101015.28;1743139;80;21536;-60
2021/10/30 04:08:07;;;;;;;21.48;11.93;;;;;;;6.82;100.00;101021.41;1745731;79;21701;-59
2021/10/30 04:10:35;;;;;;;14.30;11.95;;;;;;;6.76;100.00;101019.69;1747017;80;21014;-59
2021/10/30 04:13:03;;;;;;;12.10;11.00;;;;;;;6.80;100.00;101014.88;1731959;80;20979;-60
2021/10/30 04:15:30;;;;;;;18.15;11.50;;;;;;;6.85;100.00;101019.20;1738869;80;21484;-59
2021/10/30 04:17:57;;;;;;;22.42;11.93;;;;;;;6.83;100.00;101021.81;1684281;84;21539;-59
2021/10/30 04:20:24;;;;;;;23.53;12.83;;;;;;;6.79;100.00;101020.96;1746876;80;21785;-60
2021/10/30 04:22:50;;;;;;;13.03;11.70;;;;;;;6.73;100.00;101022.31;1739556;80;21424;-59
2021/10/30 04:25:17;;;;;;;18.90;11.73;;;;;;;6.78;100.00;101023.58;1731001;80;21088;-60
2021/10/30 04:27:45;;;;;;;;;;;;;;;6.87;100.00;101026.59;1745953;80;21558;-60
2021/10/30 04:30:11;;;;;;;25.68;12.18;;;;;;;6.87;100.00;101022.22;1733552;80;20513;-59
2021/10/30 04:32:39;;;;;;;12.75;11.33;;;;;;;6.82;100.00;101018.34;1724616;82;22020;-60
2021/10/30 04:35:09;;;;;;;13.62;11.68;;;;;;;6.85;100.00;101014.83;1739346;80;21539;-59
2021/10/30 04:37:35;;;;;;;20.30;13.45;;;;;;;6.95;100.00;101020.45;1735524;80;21018;-60
2021/10/30 04:40:02;;;;;;;18.80;12.33;;;;;;;6.95;100.00;101016.53;1734754;80;21408;-59
2021/10/30 04:42:29;;;;;;;14.47;12.18;;;;;;;6.85;100.00;101021.36;1747423;80;21523;-60
2021/10/30 04:44:56;;;;;;;14.97;11.03;;;;;;;6.77;100.00;101021.41;1750785;80;21751;-60
2021/10/30 04:47:22;;;;;;;15.05;11.10;;;;;;;6.85;100.00;101023.13;1709515;82;21590;-60
2021/10/30 04:49:49;;;;;;;26.37;12.58;;;;;;;6.91;100.00;101018.74;1687910;82;21528;-60
2021/10/30 04:52:16;;;;;;;24.18;11.48;;;;;;;6.91;100.00;101016.54;1681012;82;21575;-60
2021/10/30 04:54:42;;;;;;;12.43;11.10;;;;;;;6.82;100.00;101018.79;1650717;84;21492;-62
2021/10/30 04:57:09;;;;;;;29.52;12.60;;;;;;;6.83;100.00;101020.06;1695939;82;21816;-61
2021/10/30 04:59:36;;;;;;;12.45;10.78;;;;;;;6.92;100.00;101024.38;1687197;82;21464;-60
2021/10/30 05:02:03;;;;;;;11.20;9.80;;;;;;;6.91;100.00;101016.13;1685208;82;21551;-60
2021/10/30 05:04:30;;;;;;;24.07;10.00;;;;;;;6.86;100.00;101015.27;1716021;82;21510;-60
2021/10/30 05:06:57;;;;;;;15.40;10.05;;;;;;;6.83;100.00;101021.81;1692644;82;21030;-60
2021/10/30 05:09:24;;;;;;;10.48;9.35;;;;;;;6.81;100.00;101017.03;1693871;83;21940;-60
2021/10/30 05:11:52;;;;;;;13.20;9.75;;;;;;;6.88;100.00;101014.83;1702979;83;20962;-60
2021/10/30 05:14:19;;;;;;;22.42;9.75;;;;;;;6.84;100.00;101018.34;1694645;83;21483;-59
2021/10/30 05:16:48;;;;;;;11.40;9.78;;;;;;;6.79;100.00;101020.09;1697246;82;21516;-60
2021/10/30 05:19:16;;;;;;;28.45;9.35;;;;;;;6.73;100.00;101021.00;1693572;82;21623;-60
2021/10/30 05:21:43;;;;;;;17.67;8.88;;;;;;;6.77;100.00;101017.94;1706222;82;25395;-60
2021/10/30 05:24:10;;;;;;;17.87;9.43;;;;;;;6.78;100.00;101019.23;1685511;82;21556;-60
2021/10/30 05:26:37;;;;;;;10.30;8.90;;;;;;;6.76;100.00;101031.87;1698155;82;21610;-61
2021/10/30 05:29:04;;;;;;;22.30;8.80;;;;;;;6.69;100.00;101032.80;1681247;82;21516;-60
2021/10/30 05:31:31;;;;;;;13.93;8.83;;;;;;;6.65;100.00;101028.02;1718068;82;21569;-62
2021/10/30 05:33:59;;;;;;;9.08;8.15;;;;;;;6.68;100.00;101030.60;1682158;82;21637;-61
2021/10/30 05:36:31;;;;;;;10.40;8.75;;;;;;;6.78;100.00;101024.88;1687067;83;21159;-62
2021/10/30 05:39:07;;;;;;;14.53;8.65;;;;;;;6.85;100.00;101037.50;1684764;82;21642;-61
2021/10/30 05:41:35;;;;;;;10.85;8.65;;;;;;;6.80;100.00;101035.78;1675540;82;21452;-62
2021/10/30 05:44:03;;;;;;;17.85;8.80;;;;;;;6.78;100.00;101049.72;1744127;80;21606;-63
2021/10/30 05:46:30;;;;;;;9.70;8.48;;;;;;;6.81;100.00;101044.48;1756108;80;22112;-61
2021/10/30 05:48:59;;;;;;;13.08;7.80;;;;;;;6.89;100.00;101043.14;1728967;80;21519;-60
2021/10/30 05:51:26;;;;;;;22.85;8.80;;;;;;;6.91;100.00;101054.04;1708068;80;21037;-59
2021/10/30 05:53:52;;;;;;;19.07;9.05;;;;;;;6.85;100.00;101049.27;1748844;80;21638;-60
2021/10/30 05:56:19;;;;;;;19.20;8.73;;;;;;;6.79;100.00;101053.64;1740506;80;21517;-60
2021/10/30 05:58:46;;;;;;;17.70;8.93;;;;;;;6.79;100.00;101057.56;1748121;80;21561;-60
2021/10/30 06:01:12;;;;;;;14.00;8.23;;;;;;;6.90;100.00;101061.89;1741436;82;21409;-60
2021/10/30 06:03:39;;;;;;;11.33;8.73;;;;;;;6.94;100.00;101066.22;1710273;82;21009;-60
2021/10/30 06:06:07;;;;;;;11.00;9.70;;;;;;;6.96;100.00;101065.32;1742665;80;27242;-59
2021/10/30 06:08:34;;;;;;;13.77;9.73;;;;;;;6.95;100.00;101067.52;1750672;80;21589;-59
2021/10/30 06:11:02;;;;;;;9.25;8.40;;;;;;;6.98;100.00;101070.10;1746496;80;21464;-59
2021/10/30 06:13:29;;;;;;;12.40;9.35;;;;;;;7.12;100.00;101066.12;1741510;80;21511;-59
2021/10/30 06:15:55;;;;;;;15.60;9.85;;;;;;;7.19;100.00;101069.55;1743734;80;21566;-62
2021/10/30 06:18:22;;;;;;;15.18;10.10;;;;;;;7.18;100.00;101062.59;1755288;80;21551;-60
2021/10/30 06:20:49;;;;;;;10.20;9.20;;;;;;;7.15;100.00;101071.77;1728428;80;21547;-60
2021/10/30 06:23:16;;;;;;;10.13;9.10;;;;;;;7.18;100.00;101070.45;1754719;80;21876;-60
2021/10/30 06:25:43;;;;;;;10.90;9.40;;;;;;;7.30;100.00;101072.11;1741741;80;21471;-61
2021/10/30 06:28:11;;;;;;;9.80;8.68;;;;;;;7.29;100.00;101067.73;1734295;80;21601;-61
2021/10/30 06:30:38;;;;;;;11.33;8.95;;;;;;;7.25;100.00;101073.43;1747959;80;21006;-60
2021/10/30 06:33:05;;;;;;;11.70;8.13;;;;;;;7.20;100.00;101082.62;1744645;80;21561;-61
2021/10/30 06:35:33;;;;;;;9.43;8.53;;;;;;;7.19;100.00;101074.34;1742745;80;22012;-61
2021/10/30 06:37:59;;;;;;;22.67;8.48;;;;;;;7.26;100.00;101079.11;1759967;80;21498;-61
2021/10/30 06:40:26;;;;;;;27.60;8.48;;;;;;;7.24;100.00;101073.47;1693583;82;21602;-59
2021/10/30 06:42:53;;;;;;;10.45;7.72;;;;;;;7.13;100.00;101071.77;1736511;80;21891;-59
2021/10/30 06:45:19;;;;;;;8.30;7.50;;;;;;;7.08;100.00;101076.14;1741651;80;21472;-60
2021/10/30 06:47:46;;;;;;;9.10;8.10;;;;;;;7.12;100.00;101076.59;1748154;80;22026;-60
2021/10/30 06:50:20;;;;;;;10.30;7.50;;;;;;;7.18;100.00;101072.62;1737359;80;20990;-60
2021/10/30 06:52:42;;;;;;;13.50;7.92;;;;;;;7.19;100.00;101074.78;1742601;80;20951;-60
2021/10/30 06:55:10;;;;;;;12.85;7.90;;;;;;;7.17;100.00;101072.17;1723252;80;21575;-61
2021/10/30 06:57:37;;;;;;;8.58;7.78;;;;;;;7.18;100.00;101071.31;1726495;80;21650;-62
2021/10/30 07:00:06;;;;;;;9.58;7.78;;;;;;;7.30;100.00;101078.65;1743882;80;22036;-63
2021/10/30 07:02:34;;;;;;;8.95;8.18;;;;;;;7.34;100.00;101079.05;1732787;80;21007;-62
2021/10/30 07:05:01;;;;;;;9.15;8.25;;;;;;;7.22;100.00;101080.01;1738227;80;21602;-60
2021/10/30 07:07:28;;;;;;;8.15;7.30;;;;;;;7.19;100.00;101074.78;1715646;80;21022;-61
2021/10/30 07:10:01;;;;;;;8.23;7.03;;;;;;;7.24;100.00;101079.55;1742712;79;21479;-61
2021/10/30 07:12:30;;;;;;;12.60;7.37;;;;;;;7.31;100.00;101081.67;1739035;80;22106;-61
2021/10/30 07:14:57;;;;;;;10.08;7.85;;;;;;;7.30;100.00;101079.52;1725228;80;21535;-60
2021/10/30 07:17:25;;;;;;;20.62;8.05;;;;;;;7.26;100.00;101081.72;1748051;80;21504;-60
2021/10/30 07:19:54;;;;;;;13.98;7.83;;;;;;;7.19;100.00;101082.19;1724244;80;21096;-59
2021/10/30 07:22:21;;;;;;;12.90;8.23;;;;;;;7.19;100.00;101084.80;1744436;80;21562;-60
2021/10/30 07:24:47;;;;;;;8.75;7.60;;;;;;;7.25;100.00;101085.20;1752504;80;22019;-60
2021/10/30 07:27:19;;;;;;;15.70;8.80;;;;;;;7.23;100.00;101087.41;1747130;79;21479;-60
2021/10/30 07:29:49;;;;;;;10.75;7.70;;;;;;;7.19;100.00;101086.11;1735767;80;21599;-60
2021/10/30 07:32:17;;;;;;;8.70;7.90;;;;;;;7.17;100.00;101092.23;1701748;82;21478;-60
2021/10/30 07:34:43;;;;;;;13.08;8.98;;;;;;;7.23;100.00;101094.81;1739034;80;21023;-61
2021/10/30 07:37:10;;;;;;;9.93;8.98;;;;;;;7.28;100.00;101087.81;1749239;80;21657;-60
2021/10/30 07:39:37;;;;;;;14.05;8.73;;;;;;;7.23;100.00;101089.58;1736080;80;20983;-60
2021/10/30 07:42:05;;;;;;;9.75;8.75;;;;;;;7.19;100.00;101087.86;1743172;80;21562;-60
2021/10/30 07:44:38;;;;;;;9.40;8.50;;;;;;;7.17;100.00;101085.25;1737051;80;21430;-60
2021/10/30 07:47:05;;;;;;;7.83;7.12;;;;;;;7.23;100.00;101091.33;1734556;80;21421;-60
2021/10/30 07:49:34;;;;;;;9.83;8.20;;;;;;;7.31;100.00;101091.73;1740970;80;21820;-62
2021/10/30 07:52:03;;;;;;;11.73;7.45;;;;;;;7.35;100.00;101093.89;1737830;80;22208;-60
2021/10/30 07:55:54;;;;;;;17.92;8.70;;;;;;;7.29;100.00;101096.11;1772035;78;22843;-60
2021/10/30 07:58:21;;;;;;;10.32;8.90;;;;;;;7.21;100.00;101096.16;1745678;80;21554;-61
2021/10/30 08:00:48;;;;;;;9.35;8.25;;;;;;;7.20;100.00;101096.16;1739029;81;22096;-60
2021/10/30 08:03:15;;;;;;;10.03;8.85;;;;;;;7.20;100.00;101098.77;1742681;80;21550;-60
2021/10/30 08:05:41;;;;;;;9.15;8.03;;;;;;;7.12;100.00;101098.81;1741036;81;21620;-60
2021/10/30 08:08:08;;;;;;;10.13;8.23;;;;;;;7.10;100.00;101097.06;1732458;80;21526;-60
2021/10/30 08:10:35;;;;;;;8.48;7.28;;;;;;;7.12;100.00;101104.46;1739123;80;21597;-60
2021/10/30 08:13:01;;;;;;;9.05;7.40;;;;;;;7.26;100.00;101102.66;1740275;80;21878;-59
2021/10/30 08:15:30;;;;;;;8.93;7.37;;;;;;;7.30;99.12;101091.73;1740590;81;20963;-59
2021/10/30 08:17:57;;;;;;;12.88;7.58;;;;;;;7.24;99.74;101093.95;1727578;80;21543;-60
2021/10/30 08:20:24;;;;;;;8.78;7.97;;;;;;;7.19;99.93;101092.64;1739186;81;21429;-60
2021/10/30 08:22:50;;;;;;;9.13;8.27;;;;;;;7.20;99.92;101101.39;1743292;80;21511;-60
2021/10/30 08:25:17;;;;;;;9.98;8.25;;;;;;;7.29;99.62;101103.95;1736682;80;21769;-60
2021/10/30 08:27:44;;;;;;;15.37;9.20;;;;;;;7.33;99.63;101104.81;1704334;83;21616;-60
2021/10/30 08:30:12;;;;;;;11.85;8.73;;;;;;;7.32;97.48;101109.59;1705621;81;21746;-59
2021/10/30 08:32:40;;;;;;;8.48;7.65;;;;;;;7.29;97.38;101109.19;1707875;83;21533;-60
2021/10/30 08:35:07;;;;;;;8.40;7.70;;;;;;;7.27;96.98;101110.05;1707562;81;20981;-59
2021/10/30 08:37:34;;;;;;;10.55;7.42;;;;;;;7.35;98.35;101108.28;1708449;83;21434;-60
2021/10/30 08:40:01;;;;;;;10.23;8.30;;;;;;;7.40;97.30;101106.06;1699880;83;21580;-60
2021/10/30 08:42:27;;;;;;;12.35;7.55;;;;;;;7.40;97.18;101102.55;1698034;82;21494;-60
2021/10/30 08:44:57;;;;;;;8.20;7.43;;;;;;;7.39;96.48;101109.55;1699409;82;21458;-60
2021/10/30 08:47:24;;;;;;;8.18;7.47;;;;;;;7.42;96.27;101103.41;1704961;81;21541;-59
2021/10/30 08:49:54;;;;;;;8.63;7.83;;;;;;;7.51;95.25;101096.81;1708191;83;21710;-61
2021/10/30 08:52:19;;;;;;;8.90;8.20;;;;;;;7.56;95.46;101099.41;1713799;81;21518;-60
2021/10/30 08:54:45;;;;;;;8.73;7.87;;;;;;;7.52;94.44;101101.18;1704587;81;21550;-61
2021/10/30 08:57:12;;;;;;;9.15;8.15;;;;;;;7.50;94.90;101100.77;1696014;82;21639;-60
2021/10/30 08:59:45;;;;;;;8.95;8.05;;;;;;;7.58;94.93;101105.05;1688939;82;21538;-60
2021/10/30 09:02:28;;;;;;;7.70;7.00;;;;;;;7.68;93.90;101099.30;1734951;81;21946;-60
2021/10/30 09:05:22;;;;;;;13.45;7.70;;;;;;;7.68;93.53;101105.84;1724376;81;21604;-61
2021/10/30 09:07:52;;;;;;;8.13;7.40;;;;;;;7.60;92.56;101095.89;1716329;82;21960;-60
2021/10/30 09:10:23;;;;;;;8.93;7.65;;;;;;;7.56;92.08;101098.97;1716218;81;21629;-60
2021/10/30 09:12:54;;;;;;;8.93;8.13;;;;;;;7.61;91.33;101101.56;1720832;81;21555;-60
2021/10/30 09:15:37;;;;;;;8.83;8.00;;;;;;;7.68;90.66;101097.13;1722777;81;22127;-60
2021/10/30 09:18:29;;;;;;;11.35;7.20;;;;;;;7.65;90.27;101101.07;1717983;81;20970;-60
2021/10/30 09:21:07;;;;;;;7.22;6.62;;;;;;;7.53;89.33;101102.04;1717972;81;21429;-62
2021/10/30 09:23:46;;;;;;;7.45;6.85;;;;;;;7.45;89.56;101099.48;1715832;81;21479;-59
2021/10/30 09:26:24;;;;;;;7.92;7.20;;;;;;;7.54;89.88;101095.94;1720762;80;21065;-60
2021/10/30 09:29:03;;;;;;;8.40;7.53;;;;;;;7.59;89.55;101098.95;1732047;81;21852;-58
2021/10/30 09:31:30;;;;;;;7.78;7.08;;;;;;;7.61;89.05;101102.88;1730451;81;21574;-58
2021/10/30 09:33:59;;;;;;;9.65;7.75;;;;;;;7.58;88.04;101107.67;1724379;81;21564;-57
2021/10/30 09:36:34;;;;;;;9.10;6.85;;;;;;;7.62;87.75;101102.42;1711811;81;21527;-56
2021/10/30 09:39:06;;;;;;;8.45;7.58;;;;;;;7.74;87.34;101099.70;1729627;81;21432;-57
2021/10/30 09:41:42;;;;;;;8.53;7.72;;;;;;;7.79;87.09;101096.61;1695290;81;21764;-59
2021/10/30 09:44:17;;;;;;;10.50;8.23;;;;;;;7.75;86.94;101101.45;1728350;82;21010;-60
2021/10/30 09:46:57;;;;;;;9.10;8.20;;;;;;;7.71;86.69;101098.43;1723238;81;22015;-58
2021/10/30 09:49:25;;;;;;;8.85;7.72;;;;;;;7.70;86.74;101093.61;1719572;81;21571;-58
2021/10/30 09:52:09;;;;;;;9.50;8.60;;;;;;;7.76;86.45;101091.38;1692258;82;21445;-60
2021/10/30 09:54:41;;;;;;;8.93;8.13;;;;;;;7.82;86.57;101093.98;1660453;85;21820;-61
2021/10/30 09:57:13;;;;;;;8.33;7.58;;;;;;;7.77;86.58;101091.37;1655201;85;21527;-57
2021/10/30 09:59:40;;;;;;;8.63;7.83;;;;;;;7.76;86.56;101087.05;1692288;82;21577;-59
2021/10/30 10:02:07;;;;;;;8.45;7.58;;;;;;;7.83;86.77;101082.61;1725182;82;21625;-59
2021/10/30 10:04:40;;;;;;;9.08;8.18;;;;;;;7.97;86.62;101087.74;1723014;82;21491;-59
2021/10/30 10:07:10;;;;;;;10.60;9.50;;;;;;;8.02;86.41;101082.45;1730284;82;21681;-59
2021/10/30 10:09:47;;;;;;;9.98;9.03;;;;;;;7.97;86.70;101080.75;1712410;82;21057;-61
2021/10/30 10:12:18;;;;;;;10.50;9.18;;;;;;;7.93;86.51;101080.35;1726896;82;21503;-59
2021/10/30 10:14:45;;;;;;;10.65;9.35;;;;;;;7.95;86.65;101077.72;1725503;82;21451;-59
2021/10/30 10:17:12;;;;;;;11.40;8.60;;;;;;;8.05;86.41;101078.05;1723201;82;21555;-60
2021/10/30 10:19:39;;;;;;;11.73;8.93;;;;;;;8.03;86.29;101078.51;1718070;81;22164;-60
2021/10/30 10:22:07;;;;;;;10.78;9.68;;;;;;;8.01;86.49;101074.18;1700928;82;28772;-60
2021/10/30 10:24:37;;;;;;;8.98;8.08;;;;;;;8.01;86.37;101074.18;1696829;82;21543;-60
2021/10/30 10:27:07;;;;;;;9.08;8.18;;;;;;;7.98;86.22;101074.61;1693899;82;21649;-61
2021/10/30 10:29:40;;;;;;;9.15;8.30;;;;;;;8.02;86.16;101076.76;1683864;83;21557;-61
2021/10/30 10:32:22;;;;;;;9.93;8.93;;;;;;;8.10;86.04;101077.99;1724568;82;22096;-61
2021/10/30 10:34:50;;;;;;;9.48;8.58;;;;;;;8.06;85.64;101073.25;1725394;82;21006;-60
2021/10/30 10:37:24;;;;;;;8.98;8.15;;;;;;;7.99;85.49;101071.12;1716978;82;21526;-60
2021/10/30 10:40:00;;;;;;;9.00;8.20;;;;;;;8.02;85.68;101067.59;1723112;82;21447;-60
2021/10/30 10:42:42;;;;;;;8.88;8.10;;;;;;;8.08;85.75;101075.83;1710493;82;21057;-59
2021/10/30 10:45:12;;;;;;;9.35;8.45;;;;;;;8.11;85.68;101069.27;1716347;82;21722;-60
2021/10/30 10:47:49;;;;;;;9.68;8.78;;;;;;;8.05;85.76;101068.88;1725680;81;21593;-59
2021/10/30 10:50:28;;;;;;;9.48;8.50;;;;;;;8.06;85.91;101069.33;1723852;81;20947;-56
2021/10/30 10:53:12;;;;;;;9.35;8.45;;;;;;;8.12;85.92;101065.33;1717715;81;21525;-57
2021/10/30 10:55:48;;;;;;;11.55;9.73;;;;;;;8.22;85.80;101067.41;1707593;81;21412;-57
2021/10/30 10:58:16;;;;;;;11.70;9.95;;;;;;;8.18;85.62;101069.19;1704360;83;21786;-57
2021/10/30 11:01:14;;;;;;;9.98;8.95;;;;;;;8.15;85.38;101062.66;1705152;82;21576;-56
2021/10/30 11:03:45;;;;;;;9.68;8.68;;;;;;;8.15;85.63;101061.34;1704551;82;20952;-56
2021/10/30 11:06:14;;;;;;;10.50;9.40;;;;;;;8.27;85.33;101066.03;1701914;81;21083;-56
2021/10/30 11:08:41;;;;;;;10.00;9.05;;;;;;;8.28;84.90;101060.78;1692416;83;21146;-58
2021/10/30 11:11:19;;;;;;;12.88;10.58;;;;;;;8.24;84.64;101059.08;1709897;82;21533;-57
2021/10/30 11:13:53;;;;;;;10.50;9.40;;;;;;;8.14;84.61;101050.45;1703978;82;21552;-56
2021/10/30 11:16:28;;;;;;;10.08;9.08;;;;;;;8.16;84.75;101049.13;1700597;82;21556;-61
2021/10/30 11:19:09;;;;;;;9.75;8.85;;;;;;;8.26;84.72;101049.45;1703743;82;21536;-63
2021/10/30 11:21:38;;;;;;;9.93;9.00;;;;;;;8.24;84.30;101049.05;1699701;83;21552;-60
2021/10/30 11:24:19;;;;;;;11.40;10.30;;;;;;;8.14;84.15;101048.29;1698074;82;21859;-61
2021/10/30 11:26:57;;;;;;;11.55;9.95;;;;;;;8.02;84.19;101051.88;1692331;83;21098;-71
2021/10/30 11:29:24;;;;;;;11.63;10.35;;;;;;;7.99;84.21;101046.69;1690726;83;21071;-63